Impacts TAF Board
For situational awareness. Not to be used for flight planning purposes.
IDs:

KABQ - Albuquerque Intl, NM, US

Issued at 1736 UTC 08 Aug 2020
Updated at 2121 UTC 08 Aug 2020
Potential Impact None Slight Moderate High
Time2052Z 08/22Z 08/23Z 09/00Z 09/01Z 09/02Z 09/03Z 09/04Z 09/05Z 09/06Z 09/07Z 09/08Z 09/09Z 09/10Z>>
Type OBS PRVL PRVL PRVL PRVL PRVL PRVL PRVL PRVL PRVL PRVL PRVL PRVL PRVL
VIS 10 >6 >6 >6 >6 >6 >6 >6 >6 >6 >6 >6 >6 >6
CIG -- -- -- -- -- -- 110 110 110 110 110 110 110 110
Cover FEW SCT SCT SCT SCT SCT BKN BKN BKN BKN BKN BKN BKN BKN
FltCat VFR VFR VFR VFR VFR VFR VFR VFR VFR VFR VFR VFR VFR VFR
WX -- -- -- -- -- -- -- -- -- -- -- -- -- --
WDir VRB 300 300 300 300 300 310 310 310 310 310 310 310 310
WSpd 3 9 9 9 9 9 6 6 6 6 6 6 6 6
WGst -- -- -- -- -- -- -- -- -- -- -- -- -- --
Raw TAF
KABQ 081736Z 0818/0918 27006KT P6SM FEW120
  FM082100 30009KT P6SM SCT120
  FM090300 31006KT P6SM BKN110
  FM091200 VRB04KT P6SM SCT110
  FM091700 26006KT P6SM SCT120


Raw METAR
KABQ 082052Z VRB03KT 10SM FEW110 FEW180 33/04 A3016 RMK AO2 SLP115 T03330039 58022
KABQ 081952Z 00000KT 10SM FEW110 FEW180 32/06 A3019 RMK AO2 SLP129 T03170056
KABQ 081852Z 22005KT 10SM FEW100 FEW150 31/06 A3022 RMK AO2 SLP136 T03060061

METAR Board
Radar Display
Forecast Discussion
For situational awareness. Not to be used for flight planning purposes.